Terminal Aerodrome Forecast
Issued by NWS

Home | Current Version | Previous Version | Text Only | Print | Product List | Glossary On
Versions: 1 2 3 4 5 6 7 8 9 10 11 12 13 14 15 16 17
776
FTUS41 KPBZ 231738
TAFDUJ
TAF
KDUJ 231738Z 2318/2418 23011KT 5SM SHRA VCTS OVC015CB
     FM240000 23008KT 3SM SHRA BR OVC008
     FM240400 26004KT P6SM VCSH OVC004
     FM241000 27008KT 2SM BR OVC002=

USA.gov is the U.S. government's official web portal to all federal, state and local government web resources and services.